createdAt,value
2023-03-09T00:01:46.785Z,19.73
2023-03-09T00:04:15.612Z,20.30
2023-03-09T00:06:42.522Z,22.27
2023-03-09T00:09:08.999Z,18.30
2023-03-09T00:11:35.457Z,21.07
2023-03-09T00:14:02.268Z,20.00
2023-03-09T00:16:30.310Z,22.00
2023-03-09T00:19:01.165Z,20.93
2023-03-09T00:21:36.079Z,22.60
2023-03-09T00:24:14.327Z,22.17
2023-03-09T00:26:43.617Z,19.67
2023-03-09T00:29:13.575Z,24.77
2023-03-09T00:31:40.661Z,20.00
2023-03-09T00:34:07.828Z,19.63
2023-03-09T00:36:34.360Z,18.30
2023-03-09T00:39:01.559Z,23.30
2023-03-09T00:41:31.733Z,22.60
2023-03-09T00:43:59.905Z,20.60
2023-03-09T00:46:27.314Z,21.17
2023-03-09T00:48:53.853Z,24.30
2023-03-09T00:51:20.772Z,23.00
2023-03-09T00:53:47.204Z,23.57
2023-03-09T00:56:18.132Z,18.70
2023-03-09T00:58:44.648Z,19.63
2023-03-09T01:01:14.704Z,20.13
2023-03-09T01:03:41.763Z,20.70
2023-03-09T01:06:08.990Z,19.47
2023-03-09T01:08:36.039Z,20.50
2023-03-09T01:11:06.876Z,19.07
2023-03-09T01:13:33.317Z,19.50
2023-03-09T01:15:59.784Z,19.73
2023-03-09T01:18:26.393Z,20.67
2023-03-09T01:20:52.829Z,18.07
2023-03-09T01:23:19.301Z,23.23
2023-03-09T01:25:45.785Z,19.83
2023-03-09T01:28:12.236Z,19.50
2023-03-09T01:30:39.512Z,17.70
2023-03-09T01:33:06.213Z,16.53
2023-03-09T01:35:33.019Z,17.27
2023-03-09T01:37:59.510Z,17.27
2023-03-09T01:40:27.986Z,18.53
2023-03-09T01:43:02.495Z,17.27
2023-03-09T01:45:28.812Z,18.27
2023-03-09T01:47:59.095Z,18.30
2023-03-09T01:50:36.670Z,19.37
2023-03-09T01:53:15.439Z,15.07
2023-03-09T01:55:47.660Z,16.40
2023-03-09T01:58:20.465Z,18.37
2023-03-09T02:00:49.863Z,15.80
2023-03-09T02:03:28.096Z,17.80
2023-03-09T02:06:12.015Z,16.03
2023-03-09T02:08:44.627Z,15.87
2023-03-09T02:11:14.493Z,14.40
2023-03-09T02:13:49.303Z,17.27
2023-03-09T02:16:16.547Z,17.23
2023-03-09T02:18:43.092Z,22.57
2023-03-09T02:21:34.501Z,24.03
2023-03-09T02:24:13.777Z,22.90
2023-03-09T02:26:46.149Z,19.13
2023-03-09T02:29:14.366Z,23.93
2023-03-09T02:31:41.372Z,24.90
2023-03-09T02:34:09.000Z,24.93
2023-03-09T02:36:35.738Z,24.70
2023-03-09T02:39:09.052Z,23.43
2023-03-09T02:41:35.882Z,26.63
2023-03-09T02:44:02.831Z,28.50
2023-03-09T02:46:29.263Z,25.73
2023-03-09T02:48:56.180Z,26.70
2023-03-09T02:51:22.612Z,22.63
2023-03-09T02:53:48.983Z,25.57
2023-03-09T02:56:15.370Z,26.30
2023-03-09T02:58:41.728Z,23.80
2023-03-09T03:01:08.191Z,25.13
2023-03-09T03:03:34.893Z,26.37
2023-03-09T03:06:01.311Z,26.70
2023-03-09T03:08:36.679Z,22.17
2023-03-09T03:11:04.247Z,22.17
2023-03-09T03:13:30.683Z,22.83
2023-03-09T03:16:00.853Z,22.30
2023-03-09T03:18:27.786Z,18.53
2023-03-09T03:20:54.487Z,20.60
2023-03-09T03:23:21.231Z,20.50
2023-03-09T03:25:47.670Z,18.27
2023-03-09T03:28:14.029Z,15.80
2023-03-09T03:30:40.472Z,14.90
2023-03-09T03:33:06.916Z,17.33
2023-03-09T03:35:33.531Z,15.43
2023-03-09T03:38:00.814Z,16.60
2023-03-09T03:40:27.426Z,12.00
2023-03-09T03:42:53.841Z,14.20
2023-03-09T03:45:20.590Z,12.53
2023-03-09T03:47:46.998Z,15.10
2023-03-09T03:50:14.010Z,13.57
2023-03-09T03:52:40.417Z,15.40
2023-03-09T03:55:07.166Z,18.20
2023-03-09T03:57:33.534Z,21.60
2023-03-09T03:59:59.911Z,22.07
2023-03-09T04:02:26.382Z,21.00
2023-03-09T04:04:52.896Z,21.20
2023-03-09T04:07:19.317Z,21.17
2023-03-09T04:09:45.679Z,16.80
2023-03-09T04:12:12.114Z,17.40
2023-03-09T04:14:39.289Z,15.43
2023-03-09T04:17:05.777Z,13.70
2023-03-09T04:19:32.213Z,15.00
2023-03-09T04:21:58.597Z,12.83
2023-03-09T04:24:24.978Z,14.33
2023-03-09T04:26:51.412Z,11.73
2023-03-09T04:29:17.859Z,14.57
2023-03-09T04:31:44.264Z,13.83
2023-03-09T04:34:14.010Z,11.07
2023-03-09T04:36:40.452Z,12.70
2023-03-09T04:39:06.844Z,13.83
2023-03-09T04:41:33.638Z,14.77
2023-03-09T04:44:00.374Z,15.30
2023-03-09T04:46:26.862Z,14.90
2023-03-09T04:48:53.429Z,17.63
2023-03-09T04:51:19.944Z,18.40
2023-03-09T04:53:46.628Z,17.27
2023-03-09T04:56:13.597Z,16.97
2023-03-09T04:58:39.986Z,20.00
2023-03-09T05:01:06.849Z,14.90
2023-03-09T05:03:33.237Z,13.77
2023-03-09T05:05:59.601Z,14.60
2023-03-09T05:08:26.013Z,13.10
2023-03-09T05:10:52.416Z,15.13
2023-03-09T05:13:18.774Z,15.20
2023-03-09T05:15:45.195Z,18.77
2023-03-09T05:18:12.328Z,18.13
2023-03-09T05:20:39.111Z,17.03
2023-03-09T05:23:05.571Z,16.37
2023-03-09T05:25:32.539Z,22.17
2023-03-09T05:27:58.963Z,16.70
2023-03-09T05:30:25.481Z,16.07
2023-03-09T05:32:51.918Z,17.77
2023-03-09T05:35:20.152Z,18.47
2023-03-09T05:37:47.440Z,15.60
2023-03-09T05:40:15.449Z,17.07
2023-03-09T05:42:42.553Z,16.83
2023-03-09T05:45:10.136Z,13.37
2023-03-09T05:47:36.860Z,11.80
2023-03-09T05:50:03.479Z,15.63
2023-03-09T05:52:29.931Z,15.93
2023-03-09T05:54:56.868Z,16.97
2023-03-09T05:57:23.410Z,20.43
2023-03-09T05:59:49.853Z,33.17
2023-03-09T06:02:16.330Z,27.40
2023-03-09T06:04:42.721Z,28.17
2023-03-09T06:07:09.277Z,18.77
2023-03-09T06:09:35.706Z,17.43
2023-03-09T06:12:02.149Z,16.50
2023-03-09T06:14:28.552Z,14.33
2023-03-09T06:16:54.982Z,14.10
2023-03-09T06:19:21.458Z,14.13
2023-03-09T06:21:47.927Z,11.60
2023-03-09T06:24:14.319Z,12.53
2023-03-09T06:26:41.038Z,10.90
2023-03-09T06:29:07.492Z,14.07
2023-03-09T06:31:34.008Z,16.67
2023-03-09T06:34:00.577Z,15.33
2023-03-09T06:36:26.992Z,10.50
2023-03-09T06:38:53.410Z,12.77
2023-03-09T06:41:28.356Z,10.87
2023-03-09T06:43:54.736Z,10.43
2023-03-09T06:46:21.208Z,9.37
2023-03-09T06:48:47.567Z,10.03
2023-03-09T06:51:13.967Z,9.33
2023-03-09T06:53:40.413Z,12.70
2023-03-09T06:56:07.364Z,8.73
2023-03-09T06:58:34.625Z,9.70
2023-03-09T07:01:07.781Z,8.07
2023-03-09T07:03:34.680Z,9.13
2023-03-09T07:06:01.298Z,9.23
2023-03-09T07:08:27.648Z,8.53
2023-03-09T07:10:55.127Z,8.33
2023-03-09T07:13:22.842Z,12.23
2023-03-09T07:15:49.381Z,11.00
2023-03-09T07:18:15.915Z,8.10
2023-03-09T07:20:42.890Z,10.00
2023-03-09T07:23:10.630Z,8.23
2023-03-09T07:25:38.426Z,8.60
2023-03-09T07:28:08.851Z,12.10
2023-03-09T07:30:38.207Z,7.23
2023-03-09T07:33:05.074Z,6.50
2023-03-09T07:35:31.680Z,7.57
2023-03-09T07:37:58.261Z,7.67
2023-03-09T07:40:24.750Z,6.70
2023-03-09T07:42:53.753Z,9.13
2023-03-09T07:45:21.972Z,7.23
2023-03-09T07:47:48.495Z,13.30
2023-03-09T07:50:15.197Z,8.40
2023-03-09T07:52:42.401Z,7.50
2023-03-09T07:55:12.203Z,9.53
2023-03-09T07:57:39.444Z,10.93
2023-03-09T08:00:12.997Z,11.60
2023-03-09T08:02:43.297Z,10.73
2023-03-09T08:05:11.580Z,9.30
2023-03-09T08:07:38.094Z,8.70
2023-03-09T08:10:05.615Z,9.27
2023-03-09T08:12:32.062Z,11.43
2023-03-09T08:14:58.505Z,7.50
2023-03-09T08:17:25.333Z,6.17
2023-03-09T08:19:52.462Z,4.63
2023-03-09T08:22:18.888Z,7.40
2023-03-09T08:24:45.307Z,3.97
2023-03-09T08:27:11.715Z,5.33
2023-03-09T08:29:38.234Z,3.13
2023-03-09T08:32:08.944Z,2.80
2023-03-09T08:34:35.558Z,3.70
2023-03-09T08:37:02.390Z,8.00
2023-03-09T08:39:28.808Z,7.40
2023-03-09T08:41:55.302Z,4.10
2023-03-09T08:44:21.760Z,3.57
2023-03-09T08:46:48.417Z,5.60
2023-03-09T08:49:14.819Z,1.90
2023-03-09T08:51:41.731Z,1.67
2023-03-09T08:54:08.243Z,3.67
2023-03-09T08:56:34.690Z,2.70
2023-03-09T08:59:01.115Z,1.53
2023-03-09T09:01:27.653Z,1.57
2023-03-09T09:03:54.595Z,2.27
2023-03-09T09:06:21.246Z,1.27
2023-03-09T09:08:47.649Z,1.83
2023-03-09T09:11:16.643Z,1.40
2023-03-09T09:13:44.230Z,3.03
2023-03-09T09:16:12.281Z,1.60
2023-03-09T09:18:41.499Z,1.90
2023-03-09T09:21:14.101Z,5.40
2023-03-09T09:23:42.488Z,11.00
2023-03-09T09:26:09.901Z,9.80
2023-03-09T09:28:36.438Z,10.77
2023-03-09T09:31:04.900Z,11.43
2023-03-09T09:33:34.017Z,13.60
2023-03-09T09:36:07.109Z,11.07
2023-03-09T09:38:36.820Z,11.20
2023-03-09T09:41:07.751Z,11.23
2023-03-09T09:43:35.203Z,14.90
2023-03-09T09:46:03.802Z,11.53
2023-03-09T09:48:31.610Z,11.47
2023-03-09T09:51:22.782Z,13.20
2023-03-09T09:53:56.068Z,11.23
2023-03-09T09:56:27.816Z,11.90
2023-03-09T09:59:02.899Z,11.87
2023-03-09T10:01:43.526Z,12.20
2023-03-09T10:04:18.428Z,10.50
2023-03-09T10:06:48.037Z,9.20
2023-03-09T10:09:20.276Z,11.40
2023-03-09T10:12:03.714Z,10.07
2023-03-09T10:14:38.989Z,9.77
2023-03-09T10:17:27.061Z,12.03
2023-03-09T10:19:55.415Z,9.67
2023-03-09T10:22:25.488Z,9.03
2023-03-09T10:24:53.943Z,8.90
2023-03-09T10:27:23.201Z,11.53
2023-03-09T10:30:10.194Z,8.93
2023-03-09T10:32:52.813Z,8.63
2023-03-09T10:35:33.936Z,7.83
2023-03-09T10:38:00.440Z,6.87
2023-03-09T10:40:30.750Z,7.43
2023-03-09T10:43:01.082Z,8.17
2023-03-09T10:45:33.473Z,7.97
2023-03-09T10:48:07.003Z,6.73
2023-03-09T10:50:41.254Z,6.00
2023-03-09T10:53:30.187Z,5.87
2023-03-09T10:56:19.725Z,6.30
2023-03-09T10:58:46.581Z,5.77
2023-03-09T11:01:12.944Z,6.40
2023-03-09T11:03:42.559Z,5.60
2023-03-09T11:06:28.708Z,6.17
2023-03-09T11:09:14.981Z,4.63
2023-03-09T11:11:47.919Z,4.90
2023-03-09T11:14:29.989Z,4.13
2023-03-09T11:16:58.909Z,3.77
2023-03-09T11:19:26.492Z,4.00
2023-03-09T11:22:00.073Z,4.10
2023-03-09T11:24:52.994Z,3.70
2023-03-09T11:27:29.802Z,3.93
2023-03-09T11:30:05.796Z,6.80
2023-03-09T11:32:32.266Z,5.13
2023-03-09T11:35:00.763Z,5.80
2023-03-09T11:37:42.450Z,4.40
2023-03-09T11:40:22.632Z,4.97
2023-03-09T11:42:56.345Z,4.70
2023-03-09T11:45:25.110Z,5.60
2023-03-09T11:47:56.759Z,10.63
2023-03-09T11:50:28.515Z,7.73
2023-03-09T11:53:25.790Z,6.87
2023-03-09T11:56:01.204Z,7.10
2023-03-09T11:58:34.837Z,4.83
2023-03-09T12:01:28.558Z,4.83
2023-03-09T12:04:16.750Z,5.07
2023-03-09T12:06:55.108Z,4.63
2023-03-09T12:09:42.559Z,5.73
2023-03-09T12:12:41.482Z,4.67
2023-03-09T12:15:17.413Z,8.00
2023-03-09T12:17:51.250Z,5.23
2023-03-09T12:20:38.493Z,5.57
2023-03-09T12:23:06.463Z,4.40
2023-03-09T12:25:32.953Z,5.67
2023-03-09T12:28:03.436Z,6.00
2023-03-09T12:30:33.250Z,8.53
2023-03-09T12:33:01.948Z,6.80
2023-03-09T12:35:28.598Z,5.67
2023-03-09T12:38:00.829Z,4.83
2023-03-09T12:40:27.298Z,5.63
2023-03-09T12:43:19.992Z,3.53
2023-03-09T12:45:51.044Z,4.37
2023-03-09T12:48:23.436Z,4.30
2023-03-09T12:51:21.013Z,2.87
2023-03-09T12:54:02.263Z,4.30
2023-03-09T12:56:30.034Z,3.90
2023-03-09T12:58:57.762Z,4.33
2023-03-09T13:01:24.130Z,3.63
2023-03-09T13:04:10.322Z,2.97
2023-03-09T13:06:40.952Z,2.47
2023-03-09T13:09:16.259Z,6.60
2023-03-09T13:11:44.798Z,4.43
2023-03-09T13:14:16.095Z,3.50
2023-03-09T13:16:45.492Z,4.87
2023-03-09T13:19:15.174Z,5.63
2023-03-09T13:21:43.910Z,6.37
2023-03-09T13:24:19.875Z,9.53
2023-03-09T13:26:49.377Z,3.60
2023-03-09T13:29:18.655Z,7.90
2023-03-09T13:31:49.312Z,6.87
2023-03-09T13:34:23.829Z,6.37
2023-03-09T13:36:54.224Z,9.20
2023-03-09T13:39:25.777Z,6.57
2023-03-09T13:41:53.127Z,8.30
2023-03-09T13:44:22.186Z,4.83
2023-03-09T13:46:56.431Z,6.10
2023-03-09T13:49:26.521Z,5.90
2023-03-09T13:52:02.577Z,8.70
2023-03-09T13:54:49.629Z,6.70
2023-03-09T13:57:24.919Z,9.60
2023-03-09T13:59:59.490Z,10.47
2023-03-09T14:02:31.847Z,4.00
2023-03-09T14:05:01.852Z,4.50
2023-03-09T14:07:44.114Z,3.83
2023-03-09T14:10:28.090Z,3.57
2023-03-09T14:13:05.888Z,2.63
2023-03-09T14:15:34.168Z,3.10
2023-03-09T14:18:01.543Z,3.77
2023-03-09T14:20:48.240Z,3.87
2023-03-09T14:23:30.442Z,5.97
2023-03-09T14:25:58.627Z,4.00
2023-03-09T14:28:37.959Z,3.73
2023-03-09T14:31:21.214Z,2.80
2023-03-09T14:34:07.120Z,7.43
2023-03-09T14:36:39.347Z,5.63
2023-03-09T14:39:22.358Z,7.00
2023-03-09T14:42:11.764Z,11.17
2023-03-09T14:44:42.165Z,10.40
2023-03-09T14:47:17.691Z,9.23
2023-03-09T14:49:50.329Z,8.83
2023-03-09T14:52:20.046Z,9.97
2023-03-09T14:54:46.793Z,9.73
2023-03-09T14:57:15.107Z,7.47
2023-03-09T14:59:41.774Z,7.97
2023-03-09T15:02:10.560Z,10.87
2023-03-09T15:04:38.154Z,8.87
2023-03-09T15:07:05.578Z,9.10
2023-03-09T15:09:33.476Z,6.37
2023-03-09T15:12:05.418Z,7.73
2023-03-09T15:14:36.676Z,9.40
2023-03-09T15:17:05.017Z,8.43
2023-03-09T15:19:31.883Z,9.47
2023-03-09T15:22:02.013Z,8.40
2023-03-09T15:24:30.950Z,10.30
2023-03-09T15:26:59.099Z,6.73
2023-03-09T15:29:25.609Z,9.50
2023-03-09T15:31:52.117Z,8.70
2023-03-09T15:34:18.581Z,9.37
2023-03-09T15:36:45.039Z,4.70
2023-03-09T15:39:11.650Z,11.83
2023-03-09T15:41:38.090Z,11.97
2023-03-09T15:44:04.711Z,7.13
2023-03-09T15:46:31.157Z,8.23
2023-03-09T15:48:57.615Z,12.20
2023-03-09T15:51:24.365Z,8.60
2023-03-09T15:53:52.075Z,8.70
2023-03-09T15:56:20.284Z,13.57
2023-03-09T15:58:47.242Z,7.67
2023-03-09T16:01:19.604Z,10.53
2023-03-09T16:03:50.565Z,12.13
2023-03-09T16:06:21.656Z,8.40
2023-03-09T16:08:49.409Z,9.07
2023-03-09T16:11:17.522Z,8.70
2023-03-09T16:13:44.137Z,11.43
2023-03-09T16:16:11.862Z,8.33
2023-03-09T16:18:39.227Z,7.50
2023-03-09T16:21:05.927Z,9.80
2023-03-09T16:23:32.384Z,14.90
2023-03-09T16:25:58.852Z,10.73
2023-03-09T16:28:28.044Z,13.93
2023-03-09T16:30:55.101Z,7.37
2023-03-09T16:33:22.190Z,15.23
2023-03-09T16:36:00.409Z,9.00
2023-03-09T16:38:27.146Z,11.03
2023-03-09T16:40:53.678Z,17.80
2023-03-09T16:43:20.297Z,11.90
2023-03-09T16:45:57.358Z,9.07
2023-03-09T16:48:25.595Z,16.97
2023-03-09T16:51:02.415Z,9.83
2023-03-09T16:53:30.978Z,9.00
2023-03-09T16:56:07.821Z,10.60
2023-03-09T16:58:35.455Z,11.87
2023-03-09T17:01:02.122Z,10.50
2023-03-09T17:03:29.025Z,14.17
2023-03-09T17:05:56.937Z,15.43
2023-03-09T17:08:23.330Z,13.60
2023-03-09T17:10:50.188Z,13.10
2023-03-09T17:13:16.873Z,12.40
2023-03-09T17:15:43.344Z,12.03
2023-03-09T17:18:09.978Z,9.87
2023-03-09T17:20:36.406Z,13.27
2023-03-09T17:23:03.090Z,13.40
2023-03-09T17:25:29.544Z,14.03
2023-03-09T17:27:56.939Z,16.40
2023-03-09T17:30:30.532Z,12.43
2023-03-09T17:33:06.162Z,17.37
2023-03-09T17:35:32.715Z,15.20
2023-03-09T17:38:00.273Z,20.73
2023-03-09T17:40:26.786Z,16.63
2023-03-09T17:42:53.236Z,11.80
2023-03-09T17:45:20.068Z,13.80
2023-03-09T17:47:46.595Z,14.80
2023-03-09T17:50:12.996Z,13.60
2023-03-09T17:52:39.465Z,12.27
2023-03-09T17:55:06.321Z,13.40
2023-03-09T17:57:32.815Z,11.80
2023-03-09T17:59:59.211Z,13.13
2023-03-09T18:02:25.638Z,13.97
2023-03-09T18:04:52.153Z,13.10
2023-03-09T18:07:19.412Z,12.77
2023-03-09T18:09:51.141Z,12.03
2023-03-09T18:12:18.115Z,16.80
2023-03-09T18:14:44.725Z,15.90
2023-03-09T18:17:11.260Z,14.63
2023-03-09T18:19:37.656Z,12.30
2023-03-09T18:22:05.374Z,15.03
2023-03-09T18:24:31.839Z,19.80
2023-03-09T18:26:58.288Z,15.53
2023-03-09T18:29:24.704Z,13.20
2023-03-09T18:31:51.868Z,13.57
2023-03-09T18:34:18.831Z,15.27
2023-03-09T18:36:45.366Z,12.97
2023-03-09T18:39:11.801Z,15.67
2023-03-09T18:41:38.216Z,13.00
2023-03-09T18:44:06.210Z,18.43
2023-03-09T18:46:33.631Z,19.07
2023-03-09T18:49:01.487Z,16.73
2023-03-09T18:51:28.579Z,16.30
2023-03-09T18:53:55.057Z,11.67
2023-03-09T18:56:21.767Z,15.10
2023-03-09T18:58:53.923Z,22.73
2023-03-09T19:01:21.637Z,11.47
2023-03-09T19:03:48.886Z,11.90
2023-03-09T19:06:21.553Z,18.50
2023-03-09T19:08:48.381Z,9.00
2023-03-09T19:11:17.446Z,16.53
2023-03-09T19:13:45.836Z,16.20
2023-03-09T19:16:14.964Z,9.10
2023-03-09T19:18:41.958Z,14.17
2023-03-09T19:21:13.509Z,14.00
2023-03-09T19:23:39.957Z,13.50
2023-03-09T19:26:06.513Z,15.30
2023-03-09T19:28:33.080Z,18.90
2023-03-09T19:31:07.461Z,11.90
2023-03-09T19:33:34.389Z,16.70
2023-03-09T19:36:01.206Z,20.23
2023-03-09T19:38:28.083Z,14.00
2023-03-09T19:41:02.927Z,16.27
2023-03-09T19:43:29.982Z,16.67
2023-03-09T19:46:01.495Z,20.60
2023-03-09T19:48:29.008Z,19.17
2023-03-09T19:51:05.239Z,14.90
2023-03-09T19:53:32.085Z,16.13
2023-03-09T19:56:03.740Z,12.43
2023-03-09T19:58:30.176Z,16.00
2023-03-09T20:00:56.755Z,13.43
2023-03-09T20:03:23.168Z,11.57
2023-03-09T20:05:49.530Z,16.67
2023-03-09T20:08:15.947Z,15.47
2023-03-09T20:10:42.686Z,14.20
2023-03-09T20:13:09.533Z,15.00
2023-03-09T20:15:35.962Z,18.27
2023-03-09T20:18:02.398Z,15.33
2023-03-09T20:20:28.837Z,16.03
2023-03-09T20:22:55.252Z,14.97
2023-03-09T20:25:24.457Z,14.27
2023-03-09T20:27:50.917Z,15.73
2023-03-09T20:30:17.724Z,10.27
2023-03-09T20:32:44.222Z,17.73
2023-03-09T20:35:10.772Z,17.93
2023-03-09T20:37:37.895Z,16.03
2023-03-09T20:40:05.318Z,13.07
2023-03-09T20:42:32.057Z,10.03
2023-03-09T20:44:58.665Z,12.10
2023-03-09T20:47:25.176Z,20.33
2023-03-09T20:49:52.567Z,11.40
2023-03-09T20:52:19.026Z,11.40
2023-03-09T20:54:45.528Z,15.13
2023-03-09T20:57:11.955Z,13.10
2023-03-09T20:59:38.353Z,13.10
2023-03-09T21:02:04.898Z,9.90
2023-03-09T21:04:31.437Z,10.70
2023-03-09T21:06:57.952Z,16.03
2023-03-09T21:09:24.388Z,14.23
2023-03-09T21:11:50.786Z,10.87
2023-03-09T21:14:17.520Z,9.13
2023-03-09T21:16:43.954Z,14.10
2023-03-09T21:19:10.427Z,9.57
2023-03-09T21:21:36.800Z,8.10
2023-03-09T21:24:03.340Z,11.17
2023-03-09T21:26:29.724Z,12.20
2023-03-09T21:28:59.150Z,14.87
2023-03-09T21:31:30.153Z,9.17
2023-03-09T21:33:57.537Z,13.50
2023-03-09T21:36:24.698Z,9.70
2023-03-09T21:38:51.850Z,11.80
2023-03-09T21:41:18.487Z,12.43
2023-03-09T21:43:46.413Z,8.57
2023-03-09T21:46:13.595Z,8.63
2023-03-09T21:48:44.612Z,13.00
2023-03-09T21:51:13.137Z,10.43
2023-03-09T21:53:39.703Z,8.83
2023-03-09T21:56:06.721Z,9.40
2023-03-09T21:58:34.047Z,7.90
2023-03-09T22:01:00.818Z,8.53
2023-03-09T22:03:27.355Z,13.50
2023-03-09T22:05:53.811Z,12.50
2023-03-09T22:08:20.176Z,10.23
2023-03-09T22:10:46.670Z,17.03
2023-03-09T22:13:13.060Z,13.07
2023-03-09T22:15:39.756Z,9.33
2023-03-09T22:18:06.219Z,10.83
2023-03-09T22:20:32.711Z,6.70
2023-03-09T22:22:59.364Z,6.80
2023-03-09T22:25:25.775Z,5.53
2023-03-09T22:27:52.256Z,10.70
2023-03-09T22:30:19.242Z,8.10
2023-03-09T22:32:46.418Z,7.20
2023-03-09T22:35:13.594Z,6.73
2023-03-09T22:37:40.277Z,5.20
2023-03-09T22:40:09.224Z,7.97
2023-03-09T22:42:37.588Z,10.87
2023-03-09T22:45:04.772Z,6.90
2023-03-09T22:47:31.313Z,7.70
2023-03-09T22:49:58.056Z,7.50
2023-03-09T22:52:24.660Z,9.83
2023-03-09T22:54:51.956Z,8.37
2023-03-09T22:57:18.660Z,13.23
2023-03-09T22:59:45.037Z,7.00
2023-03-09T23:02:11.518Z,3.80
2023-03-09T23:04:38.010Z,7.83
2023-03-09T23:07:05.243Z,8.83
2023-03-09T23:09:31.636Z,5.87
2023-03-09T23:11:58.171Z,7.30
2023-03-09T23:14:30.352Z,4.37
2023-03-09T23:16:57.250Z,5.37
2023-03-09T23:19:23.746Z,8.33
2023-03-09T23:21:50.366Z,3.87
2023-03-09T23:24:16.830Z,5.77
2023-03-09T23:26:43.206Z,7.50
2023-03-09T23:29:09.699Z,6.23
2023-03-09T23:31:36.163Z,4.20
2023-03-09T23:34:02.638Z,6.80
2023-03-09T23:36:29.082Z,8.43
2023-03-09T23:38:55.522Z,6.17
2023-03-09T23:41:22.037Z,8.97
2023-03-09T23:43:48.428Z,7.70
2023-03-09T23:46:17.406Z,6.53
2023-03-09T23:48:44.385Z,5.73
2023-03-09T23:51:14.409Z,3.60
2023-03-09T23:53:41.480Z,5.47
2023-03-09T23:56:13.567Z,3.10
2023-03-09T23:58:58.749Z,5.83
